sensor_id;sensor_type;location;lat;lon;timestamp;pressure;altitude;pressure_sealevel;temperature;humidity
64616;BME280;51027;42.162;24.754;2024-01-07T00:02:14;98438.31;;;5.62;100.00
64616;BME280;51027;42.162;24.754;2024-01-07T00:04:40;98484.06;;;5.49;100.00
64616;BME280;51027;42.162;24.754;2024-01-07T00:07:06;98489.69;;;5.38;100.00
64616;BME280;51027;42.162;24.754;2024-01-07T00:09:31;98443.91;;;5.52;100.00
64616;BME280;51027;42.162;24.754;2024-01-07T00:11:56;98448.75;;;5.39;100.00
64616;BME280;51027;42.162;24.754;2024-01-07T00:14:22;98421.03;;;5.36;100.00
64616;BME280;51027;42.162;24.754;2024-01-07T00:16:47;98381.25;;;5.52;100.00
64616;BME280;51027;42.162;24.754;2024-01-07T00:19:13;98392.25;;;5.38;100.00
64616;BME280;51027;42.162;24.754;2024-01-07T00:21:38;98383.44;;;5.40;100.00
64616;BME280;51027;42.162;24.754;2024-01-07T00:24:04;98388.47;;;5.67;100.00
64616;BME280;51027;42.162;24.754;2024-01-07T00:26:29;98387.91;;;5.81;100.00
64616;BME280;51027;42.162;24.754;2024-01-07T00:28:55;98395.88;;;5.99;100.00
64616;BME280;51027;42.162;24.754;2024-01-07T00:31:20;98399.66;;;5.92;100.00
64616;BME280;51027;42.162;24.754;2024-01-07T00:33:45;98401.16;;;5.98;100.00
64616;BME280;51027;42.162;24.754;2024-01-07T00:36:11;98410.41;;;5.63;100.00
64616;BME280;51027;42.162;24.754;2024-01-07T00:38:36;98400.06;;;5.82;100.00
64616;BME280;51027;42.162;24.754;2024-01-07T00:41:01;98395.75;;;5.81;100.00
64616;BME280;51027;42.162;24.754;2024-01-07T00:43:27;98381.84;;;5.80;100.00
64616;BME280;51027;42.162;24.754;2024-01-07T00:45:52;98368.59;;;6.06;100.00
64616;BME280;51027;42.162;24.754;2024-01-07T00:48:18;98351.44;;;6.20;100.00
64616;BME280;51027;42.162;24.754;2024-01-07T00:50:43;98366.88;;;6.46;100.00
64616;BME280;51027;42.162;24.754;2024-01-07T00:53:08;98357.84;;;6.72;100.00
64616;BME280;51027;42.162;24.754;2024-01-07T00:55:34;98344.22;;;6.66;100.00
64616;BME280;51027;42.162;24.754;2024-01-07T00:58:02;98324.69;;;6.73;100.00
64616;BME280;51027;42.162;24.754;2024-01-07T01:00:28;98333.69;;;6.86;100.00
64616;BME280;51027;42.162;24.754;2024-01-07T01:02:54;98336.72;;;6.77;100.00
64616;BME280;51027;42.162;24.754;2024-01-07T01:05:19;98336.22;;;6.87;100.00
64616;BME280;51027;42.162;24.754;2024-01-07T01:07:45;98318.41;;;6.96;100.00
64616;BME280;51027;42.162;24.754;2024-01-07T01:10:10;98329.06;;;6.91;100.00
64616;BME280;51027;42.162;24.754;2024-01-07T01:12:36;98284.66;;;7.08;100.00
64616;BME280;51027;42.162;24.754;2024-01-07T01:15:01;98235.75;;;7.09;100.00
64616;BME280;51027;42.162;24.754;2024-01-07T01:17:27;98215.88;;;6.69;100.00
64616;BME280;51027;42.162;24.754;2024-01-07T01:19:52;98211.75;;;6.82;100.00
64616;BME280;51027;42.162;24.754;2024-01-07T01:22:17;98217.13;;;6.79;100.00
64616;BME280;51027;42.162;24.754;2024-01-07T01:24:43;98230.81;;;7.03;100.00
64616;BME280;51027;42.162;24.754;2024-01-07T01:27:11;98221.53;;;6.59;100.00
64616;BME280;51027;42.162;24.754;2024-01-07T01:29:37;98204.75;;;6.63;100.00
64616;BME280;51027;42.162;24.754;2024-01-07T01:32:03;98243.91;;;6.84;100.00
64616;BME280;51027;42.162;24.754;2024-01-07T01:34:28;98235.13;;;7.04;100.00
64616;BME280;51027;42.162;24.754;2024-01-07T01:36:53;98222.63;;;6.91;100.00
64616;BME280;51027;42.162;24.754;2024-01-07T01:39:19;98199.31;;;6.87;100.00
64616;BME280;51027;42.162;24.754;2024-01-07T01:41:44;98191.94;;;6.95;100.00
64616;BME280;51027;42.162;24.754;2024-01-07T01:44:10;98168.06;;;7.01;100.00
64616;BME280;51027;42.162;24.754;2024-01-07T01:46:35;98135.97;;;6.98;100.00
64616;BME280;51027;42.162;24.754;2024-01-07T01:49:01;98136.78;;;6.81;100.00
64616;BME280;51027;42.162;24.754;2024-01-07T01:51:27;98132.31;;;6.83;100.00
64616;BME280;51027;42.162;24.754;2024-01-07T01:53:54;98131.34;;;7.03;100.00
64616;BME280;51027;42.162;24.754;2024-01-07T01:56:20;98149.19;;;7.12;100.00
64616;BME280;51027;42.162;24.754;2024-01-07T01:58:48;98138.72;;;7.12;100.00
64616;BME280;51027;42.162;24.754;2024-01-07T02:01:13;98124.19;;;7.06;100.00
64616;BME280;51027;42.162;24.754;2024-01-07T02:03:39;98117.28;;;7.05;100.00
64616;BME280;51027;42.162;24.754;2024-01-07T02:06:04;98118.72;;;7.28;100.00
64616;BME280;51027;42.162;24.754;2024-01-07T02:08:30;98094.44;;;7.25;100.00
64616;BME280;51027;42.162;24.754;2024-01-07T02:10:56;98111.59;;;7.47;100.00
64616;BME280;51027;42.162;24.754;2024-01-07T02:13:22;98110.56;;;7.67;100.00
64616;BME280;51027;42.162;24.754;2024-01-07T02:15:47;98098.81;;;7.74;100.00
64616;BME280;51027;42.162;24.754;2024-01-07T02:18:13;98092.31;;;7.82;100.00
64616;BME280;51027;42.162;24.754;2024-01-07T02:20:38;98077.28;;;7.85;100.00
64616;BME280;51027;42.162;24.754;2024-01-07T02:23:04;98078.28;;;7.83;100.00
64616;BME280;51027;42.162;24.754;2024-01-07T02:25:35;98081.31;;;7.75;100.00
64616;BME280;51027;42.162;24.754;2024-01-07T02:28:01;98076.28;;;7.88;100.00
64616;BME280;51027;42.162;24.754;2024-01-07T02:30:26;98066.59;;;7.72;100.00
64616;BME280;51027;42.162;24.754;2024-01-07T02:32:52;98078.56;;;7.78;100.00
64616;BME280;51027;42.162;24.754;2024-01-07T02:35:17;98065.28;;;7.81;100.00
64616;BME280;51027;42.162;24.754;2024-01-07T02:37:43;98053.78;;;7.84;100.00
64616;BME280;51027;42.162;24.754;2024-01-07T02:40:09;98008.97;;;7.72;100.00
64616;BME280;51027;42.162;24.754;2024-01-07T02:42:34;98000.28;;;7.88;100.00
64616;BME280;51027;42.162;24.754;2024-01-07T02:45:00;98010.81;;;8.02;100.00
64616;BME280;51027;42.162;24.754;2024-01-07T02:47:25;97999.22;;;8.06;100.00
64616;BME280;51027;42.162;24.754;2024-01-07T02:49:51;97991.03;;;8.12;100.00
64616;BME280;51027;42.162;24.754;2024-01-07T02:52:16;98005.53;;;8.33;100.00
64616;BME280;51027;42.162;24.754;2024-01-07T02:54:42;97996.31;;;8.26;100.00
64616;BME280;51027;42.162;24.754;2024-01-07T02:57:07;97989.88;;;8.32;100.00
64616;BME280;51027;42.162;24.754;2024-01-07T02:59:33;97994.34;;;8.46;100.00
64616;BME280;51027;42.162;24.754;2024-01-07T03:01:58;97998.84;;;8.44;100.00
64616;BME280;51027;42.162;24.754;2024-01-07T03:04:23;98020.25;;;8.52;100.00
64616;BME280;51027;42.162;24.754;2024-01-07T03:06:49;98020.75;;;8.58;100.00
64616;BME280;51027;42.162;24.754;2024-01-07T03:09:14;98025.09;;;8.74;100.00
64616;BME280;51027;42.162;24.754;2024-01-07T03:11:40;98018.66;;;8.79;100.00
64616;BME280;51027;42.162;24.754;2024-01-07T03:14:09;98043.28;;;8.47;100.00
64616;BME280;51027;42.162;24.754;2024-01-07T03:16:35;98056.91;;;8.53;100.00
64616;BME280;51027;42.162;24.754;2024-01-07T03:19:00;98050.19;;;8.63;100.00
64616;BME280;51027;42.162;24.754;2024-01-07T03:21:27;98035.69;;;8.72;100.00
64616;BME280;51027;42.162;24.754;2024-01-07T03:23:53;98037.41;;;8.87;100.00
64616;BME280;51027;42.162;24.754;2024-01-07T03:26:19;98042.34;;;8.78;100.00
64616;BME280;51027;42.162;24.754;2024-01-07T03:28:45;98037.91;;;8.94;100.00
64616;BME280;51027;42.162;24.754;2024-01-07T03:31:14;98029.38;;;9.05;100.00
64616;BME280;51027;42.162;24.754;2024-01-07T03:33:41;98024.72;;;9.10;100.00
64616;BME280;51027;42.162;24.754;2024-01-07T03:36:11;98013.97;;;8.99;100.00
64616;BME280;51027;42.162;24.754;2024-01-07T03:38:37;98032.09;;;9.03;100.00
64616;BME280;51027;42.162;24.754;2024-01-07T03:41:03;98032.09;;;8.89;100.00
64616;BME280;51027;42.162;24.754;2024-01-07T03:43:29;98025.63;;;8.64;100.00
64616;BME280;51027;42.162;24.754;2024-01-07T03:45:55;97986.41;;;8.31;100.00
64616;BME280;51027;42.162;24.754;2024-01-07T03:48:20;98024.81;;;8.32;100.00
64616;BME280;51027;42.162;24.754;2024-01-07T03:50:46;97995.94;;;8.02;100.00
64616;BME280;51027;42.162;24.754;2024-01-07T03:53:11;97997.44;;;8.38;100.00
64616;BME280;51027;42.162;24.754;2024-01-07T03:55:37;97982.59;;;8.53;100.00
64616;BME280;51027;42.162;24.754;2024-01-07T03:58:02;97987.25;;;8.32;100.00
64616;BME280;51027;42.162;24.754;2024-01-07T04:00:28;97995.22;;;8.30;100.00
64616;BME280;51027;42.162;24.754;2024-01-07T04:02:53;98004.19;;;8.26;100.00
64616;BME280;51027;42.162;24.754;2024-01-07T04:05:19;98005.31;;;8.22;100.00
64616;BME280;51027;42.162;24.754;2024-01-07T04:07:44;97966.13;;;8.35;100.00
64616;BME280;51027;42.162;24.754;2024-01-07T04:10:09;97948.09;;;8.29;100.00
64616;BME280;51027;42.162;24.754;2024-01-07T04:12:36;97942.28;;;8.24;100.00
64616;BME280;51027;42.162;24.754;2024-01-07T04:15:02;97928.84;;;8.14;100.00
64616;BME280;51027;42.162;24.754;2024-01-07T04:17:27;97929.97;;;7.94;100.00
64616;BME280;51027;42.162;24.754;2024-01-07T04:19:53;97916.34;;;7.58;100.00
64616;BME280;51027;42.162;24.754;2024-01-07T04:22:18;97933.56;;;7.30;100.00
64616;BME280;51027;42.162;24.754;2024-01-07T04:24:43;97957.97;;;7.31;100.00
64616;BME280;51027;42.162;24.754;2024-01-07T04:27:09;97970.75;;;7.37;100.00
64616;BME280;51027;42.162;24.754;2024-01-07T04:29:34;97937.56;;;7.37;100.00
64616;BME280;51027;42.162;24.754;2024-01-07T04:32:00;97958.06;;;7.45;100.00
64616;BME280;51027;42.162;24.754;2024-01-07T04:34:26;97950.97;;;7.31;100.00
64616;BME280;51027;42.162;24.754;2024-01-07T04:36:51;97953.34;;;7.67;100.00
64616;BME280;51027;42.162;24.754;2024-01-07T04:39:17;97986.38;;;7.54;100.00
64616;BME280;51027;42.162;24.754;2024-01-07T04:41:42;97985.72;;;7.66;100.00
64616;BME280;51027;42.162;24.754;2024-01-07T04:44:08;97971.06;;;7.94;100.00
64616;BME280;51027;42.162;24.754;2024-01-07T04:46:34;97995.19;;;7.85;100.00
64616;BME280;51027;42.162;24.754;2024-01-07T04:49:00;97990.75;;;8.17;100.00
64616;BME280;51027;42.162;24.754;2024-01-07T04:51:26;97968.69;;;8.21;100.00
64616;BME280;51027;42.162;24.754;2024-01-07T04:53:51;97949.63;;;8.17;100.00
64616;BME280;51027;42.162;24.754;2024-01-07T04:56:16;97937.09;;;8.08;100.00
64616;BME280;51027;42.162;24.754;2024-01-07T04:58:42;97934.97;;;7.99;100.00
64616;BME280;51027;42.162;24.754;2024-01-07T05:01:07;97928.66;;;8.17;100.00
64616;BME280;51027;42.162;24.754;2024-01-07T05:03:32;97921.88;;;8.29;100.00
64616;BME280;51027;42.162;24.754;2024-01-07T05:05:59;97927.88;;;8.31;100.00
64616;BME280;51027;42.162;24.754;2024-01-07T05:08:26;97943.56;;;8.47;100.00
64616;BME280;51027;42.162;24.754;2024-01-07T05:10:52;97942.03;;;8.58;100.00
64616;BME280;51027;42.162;24.754;2024-01-07T05:13:17;97939.03;;;8.64;100.00
64616;BME280;51027;42.162;24.754;2024-01-07T05:15:42;97933.63;;;8.37;100.00
64616;BME280;51027;42.162;24.754;2024-01-07T05:18:08;97938.72;;;8.41;100.00
64616;BME280;51027;42.162;24.754;2024-01-07T05:20:34;97939.31;;;8.60;100.00
64616;BME280;51027;42.162;24.754;2024-01-07T05:23:00;97939.88;;;8.65;100.00
64616;BME280;51027;42.162;24.754;2024-01-07T05:25:25;97944.78;;;8.71;100.00
64616;BME280;51027;42.162;24.754;2024-01-07T05:27:51;97941.41;;;8.69;100.00
64616;BME280;51027;42.162;24.754;2024-01-07T05:30:16;97939.31;;;8.60;100.00
64616;BME280;51027;42.162;24.754;2024-01-07T05:32:41;97925.81;;;8.52;100.00
64616;BME280;51027;42.162;24.754;2024-01-07T05:35:07;97895.47;;;8.32;100.00
64616;BME280;51027;42.162;24.754;2024-01-07T05:37:32;97911.31;;;8.30;100.00
64616;BME280;51027;42.162;24.754;2024-01-07T05:39:58;97911.38;;;8.29;100.00
64616;BME280;51027;42.162;24.754;2024-01-07T05:42:23;97928.63;;;8.33;100.00
64616;BME280;51027;42.162;24.754;2024-01-07T05:44:48;97935.53;;;8.20;100.00
64616;BME280;51027;42.162;24.754;2024-01-07T05:47:14;97955.00;;;8.46;100.00
64616;BME280;51027;42.162;24.754;2024-01-07T05:49:39;97954.25;;;8.44;100.00
64616;BME280;51027;42.162;24.754;2024-01-07T05:52:05;97963.19;;;8.55;100.00
64616;BME280;51027;42.162;24.754;2024-01-07T05:54:30;97974.66;;;8.69;100.00
64616;BME280;51027;42.162;24.754;2024-01-07T05:56:55;97975.41;;;8.71;100.00
64616;BME280;51027;42.162;24.754;2024-01-07T05:59:21;97955.81;;;8.76;100.00
64616;BME280;51027;42.162;24.754;2024-01-07T06:01:46;97961.25;;;8.73;100.00
64616;BME280;51027;42.162;24.754;2024-01-07T06:04:11;97961.25;;;8.59;100.00
64616;BME280;51027;42.162;24.754;2024-01-07T06:06:37;97952.22;;;8.49;100.00
64616;BME280;51027;42.162;24.754;2024-01-07T06:09:02;97922.03;;;8.56;100.00
64616;BME280;51027;42.162;24.754;2024-01-07T06:11:28;97891.94;;;8.47;100.00
64616;BME280;51027;42.162;24.754;2024-01-07T06:13:53;97920.84;;;8.61;100.00
64616;BME280;51027;42.162;24.754;2024-01-07T06:16:18;97921.75;;;8.46;100.00
64616;BME280;51027;42.162;24.754;2024-01-07T06:18:44;97930.16;;;8.37;100.00
64616;BME280;51027;42.162;24.754;2024-01-07T06:21:09;97938.53;;;8.44;100.00
64616;BME280;51027;42.162;24.754;2024-01-07T06:23:35;97943.03;;;8.42;100.00
64616;BME280;51027;42.162;24.754;2024-01-07T06:26:03;97939.41;;;8.73;100.00
64616;BME280;51027;42.162;24.754;2024-01-07T06:28:28;97932.03;;;9.08;100.00
64616;BME280;51027;42.162;24.754;2024-01-07T06:30:54;97940.41;;;9.00;100.00
64616;BME280;51027;42.162;24.754;2024-01-07T06:33:19;97926.50;;;8.98;100.00
64616;BME280;51027;42.162;24.754;2024-01-07T06:35:46;97938.13;;;9.08;100.00
64616;BME280;51027;42.162;24.754;2024-01-07T06:38:11;97928.34;;;9.80;100.00
64616;BME280;51027;42.162;24.754;2024-01-07T06:40:37;97902.56;;;10.52;100.00
64616;BME280;51027;42.162;24.754;2024-01-07T06:43:02;97884.41;;;11.36;100.00
64616;BME280;51027;42.162;24.754;2024-01-07T06:45:27;97922.16;;;11.37;100.00
64616;BME280;51027;42.162;24.754;2024-01-07T06:47:53;97924.84;;;10.86;100.00
64616;BME280;51027;42.162;24.754;2024-01-07T06:50:19;97915.66;;;10.91;100.00
64616;BME280;51027;42.162;24.754;2024-01-07T06:52:45;97906.81;;;11.05;100.00
64616;BME280;51027;42.162;24.754;2024-01-07T06:55:11;97922.41;;;11.94;100.00
64616;BME280;51027;42.162;24.754;2024-01-07T06:57:36;97922.91;;;11.63;100.00
64616;BME280;51027;42.162;24.754;2024-01-07T07:00:02;97919.97;;;14.18;100.00
64616;BME280;51027;42.162;24.754;2024-01-07T07:02:28;97941.16;;;15.64;100.00
64616;BME280;51027;42.162;24.754;2024-01-07T07:04:54;97955.00;;;13.22;100.00
64616;BME280;51027;42.162;24.754;2024-01-07T07:07:19;97963.25;;;11.39;100.00
64616;BME280;51027;42.162;24.754;2024-01-07T07:09:44;97974.44;;;10.79;100.00
64616;BME280;51027;42.162;24.754;2024-01-07T07:12:12;97960.69;;;10.49;100.00
64616;BME280;51027;42.162;24.754;2024-01-07T07:14:37;97959.22;;;10.45;100.00
64616;BME280;51027;42.162;24.754;2024-01-07T07:17:03;97969.16;;;10.27;100.00
64616;BME280;51027;42.162;24.754;2024-01-07T07:19:28;97947.41;;;10.10;100.00
64616;BME280;51027;42.162;24.754;2024-01-07T07:21:54;97962.56;;;10.20;100.00
64616;BME280;51027;42.162;24.754;2024-01-07T07:24:20;97954.47;;;9.83;100.00
64616;BME280;51027;42.162;24.754;2024-01-07T07:26:45;97974.06;;;9.50;100.00
64616;BME280;51027;42.162;24.754;2024-01-07T07:29:10;97970.34;;;9.67;100.00
64616;BME280;51027;42.162;24.754;2024-01-07T07:31:36;97963.56;;;9.77;100.00
64616;BME280;51027;42.162;24.754;2024-01-07T07:34:04;97958.22;;;9.79;100.00
64616;BME280;51027;42.162;24.754;2024-01-07T07:36:30;97935.75;;;9.61;100.00
64616;BME280;51027;42.162;24.754;2024-01-07T07:38:56;97971.22;;;9.53;100.00
64616;BME280;51027;42.162;24.754;2024-01-07T07:41:21;97974.31;;;9.17;100.00
64616;BME280;51027;42.162;24.754;2024-01-07T07:43:46;97964.94;;;9.28;100.00
64616;BME280;51027;42.162;24.754;2024-01-07T07:46:12;97957.81;;;9.44;100.00
64616;BME280;51027;42.162;24.754;2024-01-07T07:48:38;97968.78;;;9.50;100.00
64616;BME280;51027;42.162;24.754;2024-01-07T07:51:04;97962.03;;;9.46;100.00
64616;BME280;51027;42.162;24.754;2024-01-07T07:53:30;97981.44;;;9.58;100.00
64616;BME280;51027;42.162;24.754;2024-01-07T07:55:55;97977.97;;;9.72;100.00
64616;BME280;51027;42.162;24.754;2024-01-07T07:58:21;97969.09;;;9.87;100.00
64616;BME280;51027;42.162;24.754;2024-01-07T08:00:46;97964.03;;;9.84;100.00
64616;BME280;51027;42.162;24.754;2024-01-07T08:03:12;97957.50;;;10.04;100.00
64616;BME280;51027;42.162;24.754;2024-01-07T08:05:37;97960.66;;;10.09;100.00
64616;BME280;51027;42.162;24.754;2024-01-07T08:08:03;97958.66;;;9.86;100.00
64616;BME280;51027;42.162;24.754;2024-01-07T08:10:28;97951.81;;;9.83;100.00
64616;BME280;51027;42.162;24.754;2024-01-07T08:12:57;97969.72;;;9.91;100.00
64616;BME280;51027;42.162;24.754;2024-01-07T08:15:22;97958.34;;;10.04;100.00
64616;BME280;51027;42.162;24.754;2024-01-07T08:17:48;97950.88;;;9.84;100.00
64616;BME280;51027;42.162;24.754;2024-01-07T08:20:16;97963.09;;;9.85;100.00
64616;BME280;51027;42.162;24.754;2024-01-07T08:22:42;97961.50;;;9.68;100.00
64616;BME280;51027;42.162;24.754;2024-01-07T08:25:07;97963.78;;;9.60;100.00
64616;BME280;51027;42.162;24.754;2024-01-07T08:27:34;97939.41;;;9.44;100.00
64616;BME280;51027;42.162;24.754;2024-01-07T08:30:00;97955.25;;;9.57;100.00
64616;BME280;51027;42.162;24.754;2024-01-07T08:32:26;97967.44;;;9.72;100.00
64616;BME280;51027;42.162;24.754;2024-01-07T08:34:52;97960.78;;;10.20;100.00
64616;BME280;51027;42.162;24.754;2024-01-07T08:37:17;97958.34;;;10.84;100.00
64616;BME280;51027;42.162;24.754;2024-01-07T08:39:43;97975.56;;;12.25;100.00
64616;BME280;51027;42.162;24.754;2024-01-07T08:42:08;97967.19;;;13.01;100.00
64616;BME280;51027;42.162;24.754;2024-01-07T08:44:34;97951.47;;;12.53;100.00
64616;BME280;51027;42.162;24.754;2024-01-07T08:46:59;97969.97;;;13.11;100.00
64616;BME280;51027;42.162;24.754;2024-01-07T08:49:27;97971.50;;;12.91;100.00
64616;BME280;51027;42.162;24.754;2024-01-07T08:51:53;97964.97;;;12.73;100.00
64616;BME280;51027;42.162;24.754;2024-01-07T08:54:19;97957.25;;;12.58;100.00
64616;BME280;51027;42.162;24.754;2024-01-07T08:56:44;97939.31;;;12.16;100.00
64616;BME280;51027;42.162;24.754;2024-01-07T08:59:10;97958.28;;;12.21;100.00
64616;BME280;51027;42.162;24.754;2024-01-07T09:01:36;97954.72;;;11.98;100.00
64616;BME280;51027;42.162;24.754;2024-01-07T09:04:01;97955.25;;;11.90;100.00
64616;BME280;51027;42.162;24.754;2024-01-07T09:06:26;97946.09;;;11.83;100.00
64616;BME280;51027;42.162;24.754;2024-01-07T09:08:52;97949.25;;;11.88;100.00
64616;BME280;51027;42.162;24.754;2024-01-07T09:11:20;97946.78;;;11.98;100.00
64616;BME280;51027;42.162;24.754;2024-01-07T09:13:46;97957.72;;;12.04;100.00
64616;BME280;51027;42.162;24.754;2024-01-07T09:16:14;97958.00;;;11.89;100.00
64616;BME280;51027;42.162;24.754;2024-01-07T09:18:40;97943.03;;;11.76;100.00
64616;BME280;51027;42.162;24.754;2024-01-07T09:21:06;97932.66;;;11.99;100.00
64616;BME280;51027;42.162;24.754;2024-01-07T09:23:31;97952.72;;;12.13;100.00
64616;BME280;51027;42.162;24.754;2024-01-07T09:25:59;97925.69;;;11.98;100.00
64616;BME280;51027;42.162;24.754;2024-01-07T09:28:24;97928.06;;;12.25;100.00
64616;BME280;51027;42.162;24.754;2024-01-07T09:30:50;97905.78;;;12.05;100.00
64616;BME280;51027;42.162;24.754;2024-01-07T09:33:15;97920.00;;;12.15;100.00
64616;BME280;51027;42.162;24.754;2024-01-07T09:35:41;97926.28;;;12.01;100.00
64616;BME280;51027;42.162;24.754;2024-01-07T09:38:08;97932.28;;;12.03;100.00
64616;BME280;51027;42.162;24.754;2024-01-07T09:40:34;97924.16;;;12.30;100.00
64616;BME280;51027;42.162;24.754;2024-01-07T09:42:59;97924.44;;;12.15;100.00
64616;BME280;51027;42.162;24.754;2024-01-07T09:45:25;97919.44;;;11.99;100.00
64616;BME280;51027;42.162;24.754;2024-01-07T09:47:51;97922.56;;;12.04;100.00
64616;BME280;51027;42.162;24.754;2024-01-07T09:50:17;97906.81;;;11.91;100.00
64616;BME280;51027;42.162;24.754;2024-01-07T09:52:43;97906.41;;;11.85;100.00
64616;BME280;51027;42.162;24.754;2024-01-07T09:55:12;97920.22;;;12.12;100.00
64616;BME280;51027;42.162;24.754;2024-01-07T09:57:44;97909.59;;;12.60;100.00
64616;BME280;51027;42.162;24.754;2024-01-07T10:00:11;97878.69;;;12.38;100.00
64616;BME280;51027;42.162;24.754;2024-01-07T10:02:37;97895.53;;;12.48;100.00
64616;BME280;51027;42.162;24.754;2024-01-07T10:05:03;97901.56;;;12.61;100.00
64616;BME280;51027;42.162;24.754;2024-01-07T10:07:28;97893.03;;;12.58;100.00
64616;BME280;51027;42.162;24.754;2024-01-07T10:09:54;97880.00;;;13.12;100.00
64616;BME280;51027;42.162;24.754;2024-01-07T10:12:24;97864.94;;;14.01;100.00
64616;BME280;51027;42.162;24.754;2024-01-07T10:14:49;97873.00;;;15.94;100.00
64616;BME280;51027;42.162;24.754;2024-01-07T10:17:15;97867.34;;;18.39;100.00
64616;BME280;51027;42.162;24.754;2024-01-07T10:19:44;97872.06;;;18.27;84.57
64616;BME280;51027;42.162;24.754;2024-01-07T10:22:13;97855.72;;;17.59;85.28
64616;BME280;51027;42.162;24.754;2024-01-07T10:24:40;97869.09;;;16.56;92.22
64616;BME280;51027;42.162;24.754;2024-01-07T10:27:07;97859.88;;;16.69;90.64
64616;BME280;51027;42.162;24.754;2024-01-07T10:29:33;97851.66;;;15.36;97.54
64616;BME280;51027;42.162;24.754;2024-01-07T10:32:02;97839.34;;;14.64;100.00
64616;BME280;51027;42.162;24.754;2024-01-07T10:34:34;97847.34;;;14.74;100.00
64616;BME280;51027;42.162;24.754;2024-01-07T10:37:01;97830.47;;;14.33;100.00
64616;BME280;51027;42.162;24.754;2024-01-07T10:39:27;97832.84;;;14.78;100.00
64616;BME280;51027;42.162;24.754;2024-01-07T10:41:54;97834.75;;;14.96;100.00
64616;BME280;51027;42.162;24.754;2024-01-07T10:44:25;97833.41;;;14.72;100.00
64616;BME280;51027;42.162;24.754;2024-01-07T10:46:53;97823.03;;;14.68;100.00
64616;BME280;51027;42.162;24.754;2024-01-07T10:49:20;97823.13;;;14.88;100.00
64616;BME280;51027;42.162;24.754;2024-01-07T10:52:11;97807.75;;;15.22;98.15
64616;BME280;51027;42.162;24.754;2024-01-07T10:54:36;97812.50;;;15.88;94.20
64616;BME280;51027;42.162;24.754;2024-01-07T10:59:52;97805.03;;;24.92;55.97
64616;BME280;51027;42.162;24.754;2024-01-07T11:02:19;97799.72;;;24.70;53.55
64616;BME280;51027;42.162;24.754;2024-01-07T11:04:54;97793.97;;;21.49;59.40
64616;BME280;51027;42.162;24.754;2024-01-07T11:10:10;97799.78;;;16.86;77.75
64616;BME280;51027;42.162;24.754;2024-01-07T11:12:36;97796.41;;;16.84;76.21
64616;BME280;51027;42.162;24.754;2024-01-07T11:15:03;97778.16;;;16.62;72.86
64616;BME280;51027;42.162;24.754;2024-01-07T11:20:07;97791.09;;;26.45;42.62
64616;BME280;51027;42.162;24.754;2024-01-07T11:22:37;97795.88;;;26.36;42.44
64616;BME280;51027;42.162;24.754;2024-01-07T11:27:56;97801.50;;;23.93;46.08
64616;BME280;51027;42.162;24.754;2024-01-07T11:30:22;97794.63;;;22.80;50.30
64616;BME280;51027;42.162;24.754;2024-01-07T11:32:47;97791.19;;;21.34;55.46
64616;BME280;51027;42.162;24.754;2024-01-07T11:35:13;97781.88;;;21.53;56.24
64616;BME280;51027;42.162;24.754;2024-01-07T11:37:38;97784.28;;;19.46;62.26
64616;BME280;51027;42.162;24.754;2024-01-07T11:40:06;97763.75;;;18.96;64.65
64616;BME280;51027;42.162;24.754;2024-01-07T11:42:32;97788.13;;;17.88;68.99
64616;BME280;51027;42.162;24.754;2024-01-07T11:44:57;97778.53;;;17.59;71.59
64616;BME280;51027;42.162;24.754;2024-01-07T11:47:24;97779.09;;;17.35;72.78
64616;BME280;51027;42.162;24.754;2024-01-07T11:49:53;97777.59;;;18.22;70.17
64616;BME280;51027;42.162;24.754;2024-01-07T11:52:19;97761.78;;;21.26;60.99
64616;BME280;51027;42.162;24.754;2024-01-07T11:54:45;97782.81;;;21.91;58.24
64616;BME280;51027;42.162;24.754;2024-01-07T11:57:13;97766.84;;;20.08;62.31
64616;BME280;51027;42.162;24.754;2024-01-07T11:59:38;97766.13;;;18.03;67.66
64616;BME280;51027;42.162;24.754;2024-01-07T12:02:04;97760.91;;;17.31;71.12
64616;BME280;51027;42.162;24.754;2024-01-07T12:04:33;97761.38;;;16.98;73.76
64616;BME280;51027;42.162;24.754;2024-01-07T12:06:59;97757.41;;;16.75;75.27
64616;BME280;51027;42.162;24.754;2024-01-07T12:09:25;97742.59;;;16.26;76.04
64616;BME280;51027;42.162;24.754;2024-01-07T12:11:51;97763.84;;;16.26;77.58
64616;BME280;51027;42.162;24.754;2024-01-07T12:14:17;97770.00;;;16.26;78.31
64616;BME280;51027;42.162;24.754;2024-01-07T12:16:43;97760.78;;;16.01;79.78
64616;BME280;51027;42.162;24.754;2024-01-07T12:19:09;97766.25;;;15.80;81.10
64616;BME280;51027;42.162;24.754;2024-01-07T12:21:35;97761.25;;;15.68;81.44
64616;BME280;51027;42.162;24.754;2024-01-07T12:24:01;97769.91;;;15.70;81.85
64616;BME280;51027;42.162;24.754;2024-01-07T12:26:32;97747.78;;;15.40;84.13
64616;BME280;51027;42.162;24.754;2024-01-07T12:29:02;97756.28;;;15.24;86.12
64616;BME280;51027;42.162;24.754;2024-01-07T12:31:34;97765.59;;;15.09;87.50
64616;BME280;51027;42.162;24.754;2024-01-07T12:34:01;97766.16;;;15.13;88.95
64616;BME280;51027;42.162;24.754;2024-01-07T12:36:29;97763.22;;;15.06;89.44
64616;BME280;51027;42.162;24.754;2024-01-07T12:38:55;97760.59;;;15.25;89.61
64616;BME280;51027;42.162;24.754;2024-01-07T12:41:23;97761.22;;;14.98;90.03
64616;BME280;51027;42.162;24.754;2024-01-07T12:43:49;97764.47;;;15.12;89.32
64616;BME280;51027;42.162;24.754;2024-01-07T12:46:15;97765.97;;;14.95;89.81
64616;BME280;51027;42.162;24.754;2024-01-07T12:48:41;97761.69;;;15.04;89.75
64616;BME280;51027;42.162;24.754;2024-01-07T12:51:06;97761.72;;;15.13;90.02
64616;BME280;51027;42.162;24.754;2024-01-07T12:53:32;97766.75;;;15.26;89.67